createdAt,value
2022-11-18T00:04:38.130Z,93.47
2022-11-18T00:09:39.796Z,93.60
2022-11-18T00:14:41.489Z,93.40
2022-11-18T00:19:43.201Z,93.14
2022-11-18T00:24:44.877Z,93.05
2022-11-18T00:29:46.588Z,92.95
2022-11-18T00:34:48.416Z,92.86
2022-11-18T00:39:50.085Z,92.83
2022-11-18T00:44:51.872Z,92.69
2022-11-18T00:49:53.517Z,92.84
2022-11-18T00:54:55.164Z,93.07
2022-11-18T00:59:56.827Z,92.94
2022-11-18T01:04:58.493Z,92.68
2022-11-18T01:10:00.163Z,93.00
2022-11-18T01:15:01.852Z,92.71
2022-11-18T01:20:03.939Z,92.89
2022-11-18T01:25:05.844Z,92.58
2022-11-18T01:30:08.525Z,92.34
2022-11-18T01:35:11.656Z,92.43
2022-11-18T01:40:13.350Z,92.42
2022-11-18T01:45:26.278Z,92.57
2022-11-18T01:50:28.451Z,92.70
2022-11-18T01:55:34.820Z,92.70
2022-11-18T02:00:37.356Z,92.85
2022-11-18T02:05:40.556Z,92.83
2022-11-18T02:10:42.386Z,92.95
2022-11-18T02:16:11.094Z,92.74
2022-11-18T02:21:45.238Z,92.66
2022-11-18T02:27:13.224Z,92.64
2022-11-18T02:32:26.286Z,92.47
2022-11-18T02:37:47.354Z,92.78
2022-11-18T02:42:54.695Z,92.77
2022-11-18T02:48:01.179Z,92.54
2022-11-18T02:53:05.700Z,92.86
2022-11-18T02:58:08.777Z,92.94
2022-11-18T03:03:31.841Z,93.33
2022-11-18T03:08:39.457Z,93.40
2022-11-18T03:14:06.717Z,93.55
2022-11-18T03:19:20.263Z,93.76
2022-11-18T03:24:30.390Z,93.99
2022-11-18T03:29:37.211Z,94.33
2022-11-18T03:34:45.115Z,94.44
2022-11-18T03:39:52.429Z,94.29
2022-11-18T03:45:06.374Z,94.26
2022-11-18T03:50:15.878Z,94.92
2022-11-18T03:55:22.755Z,95.91
2022-11-18T04:00:29.688Z,96.33
2022-11-18T04:05:36.141Z,96.81
2022-11-18T04:10:46.140Z,96.87
2022-11-18T04:15:48.030Z,96.95
2022-11-18T04:20:49.748Z,96.83
2022-11-18T04:25:51.359Z,97.11
2022-11-18T04:30:52.991Z,97.30
2022-11-18T04:35:54.738Z,97.67
2022-11-18T04:40:56.488Z,97.85
2022-11-18T04:45:58.379Z,97.67
2022-11-18T04:51:04.716Z,97.79
2022-11-18T04:56:07.217Z,97.75
2022-11-18T05:01:08.907Z,98.13
2022-11-18T05:06:10.615Z,98.34
2022-11-18T05:11:30.598Z,98.52
2022-11-18T05:16:32.521Z,98.86
2022-11-18T05:21:34.207Z,99.17
2022-11-18T05:26:35.947Z,99.42
2022-11-18T05:31:37.875Z,99.74
2022-11-18T05:36:39.625Z,99.55
2022-11-18T05:42:00.023Z,99.93
2022-11-18T05:47:01.812Z,100.00
2022-11-18T05:52:03.785Z,100.00
2022-11-18T05:57:05.639Z,100.00
2022-11-18T06:02:16.397Z,100.00
2022-11-18T06:07:47.421Z,100.00
2022-11-18T06:12:52.670Z,100.00
2022-11-18T06:18:10.613Z,100.00
2022-11-18T06:23:13.385Z,100.00
2022-11-18T06:28:16.865Z,100.00
2022-11-18T06:33:18.988Z,100.00
2022-11-18T06:38:24.315Z,100.00
2022-11-18T06:43:41.736Z,100.00
2022-11-18T06:48:43.552Z,100.00
2022-11-18T06:53:45.275Z,100.00
2022-11-18T06:58:47.631Z,100.00
2022-11-18T07:03:49.600Z,100.00
2022-11-18T07:08:52.225Z,100.00
2022-11-18T07:13:54.352Z,100.00
2022-11-18T07:18:56.483Z,100.00
2022-11-18T07:23:58.235Z,100.00
2022-11-18T07:29:00.189Z,100.00
2022-11-18T07:34:01.822Z,100.00
2022-11-18T07:39:05.992Z,100.00
2022-11-18T07:44:07.780Z,100.00
2022-11-18T07:49:11.913Z,100.00
2022-11-18T07:54:16.971Z,100.00
2022-11-18T07:59:19.030Z,100.00
2022-11-18T08:04:20.789Z,100.00
2022-11-18T08:09:22.558Z,100.00
2022-11-18T08:14:24.538Z,100.00
2022-11-18T08:19:26.278Z,100.00
2022-11-18T08:24:27.924Z,100.00
2022-11-18T08:29:29.898Z,100.00
2022-11-18T08:34:32.024Z,100.00
2022-11-18T08:39:33.744Z,100.00
2022-11-18T08:44:35.861Z,100.00
2022-11-18T08:49:37.505Z,99.02
2022-11-18T08:54:39.495Z,97.18
2022-11-18T08:59:41.168Z,97.49
2022-11-18T09:04:43.112Z,98.67
2022-11-18T09:09:44.776Z,98.10
2022-11-18T09:15:12.776Z,97.98
2022-11-18T09:20:09.139Z,97.82
2022-11-18T09:25:11.050Z,98.01
2022-11-18T09:30:13.164Z,97.77
2022-11-18T09:35:15.012Z,98.78
2022-11-18T09:40:18.366Z,99.71
2022-11-18T09:45:28.462Z,99.95
2022-11-18T09:55:53.675Z,100.00
2022-11-18T10:00:55.414Z,100.00
2022-11-18T10:06:03.823Z,100.00
2022-11-18T10:11:17.396Z,100.00
2022-11-18T10:16:57.707Z,100.00
2022-11-18T10:21:59.667Z,100.00
2022-11-18T10:27:02.507Z,100.00
2022-11-18T10:32:14.668Z,100.00
2022-11-18T10:37:52.525Z,100.00
2022-11-18T10:42:50.576Z,100.00
2022-11-18T10:47:59.732Z,100.00
2022-11-18T10:53:01.706Z,100.00
2022-11-18T10:58:13.186Z,100.00
2022-11-18T11:03:20.599Z,100.00
2022-11-18T11:08:37.429Z,100.00
2022-11-18T11:13:43.895Z,100.00
2022-11-18T11:18:56.462Z,100.00
2022-11-18T11:23:58.328Z,100.00
2022-11-18T11:29:14.072Z,100.00
2022-11-18T11:34:28.548Z,100.00
2022-11-18T11:39:48.194Z,100.00
2022-11-18T11:45:29.758Z,100.00
2022-11-18T11:51:05.003Z,100.00
2022-11-18T11:56:37.165Z,100.00
2022-11-18T12:02:16.210Z,100.00
2022-11-18T12:08:04.180Z,100.00
2022-11-18T12:13:30.791Z,100.00
2022-11-18T12:18:42.065Z,100.00
2022-11-18T12:24:22.971Z,100.00
2022-11-18T12:29:27.624Z,100.00
2022-11-18T12:34:35.168Z,100.00
2022-11-18T12:39:36.762Z,100.00
2022-11-18T12:44:39.439Z,100.00
2022-11-18T12:49:44.039Z,100.00
2022-11-18T12:54:48.809Z,100.00
2022-11-18T12:59:50.636Z,100.00
2022-11-18T13:05:10.796Z,100.00
2022-11-18T13:10:23.415Z,100.00
2022-11-18T13:15:44.175Z,100.00
2022-11-18T13:21:24.783Z,100.00
2022-11-18T13:26:33.152Z,100.00
2022-11-18T13:31:52.939Z,100.00
2022-11-18T13:36:56.961Z,100.00
2022-11-18T13:42:24.771Z,100.00
2022-11-18T13:47:26.389Z,100.00
2022-11-18T13:52:33.870Z,100.00
2022-11-18T13:57:36.704Z,100.00
2022-11-18T14:02:46.099Z,100.00
2022-11-18T14:08:01.053Z,100.00
2022-11-18T14:13:04.204Z,100.00
2022-11-18T14:18:19.052Z,100.00
2022-11-18T14:23:35.621Z,100.00
2022-11-18T14:28:38.550Z,100.00
2022-11-18T14:33:40.149Z,100.00
2022-11-18T14:44:11.102Z,100.00
2022-11-18T14:49:17.009Z,100.00
2022-11-18T14:54:26.356Z,100.00
2022-11-18T14:59:29.690Z,100.00
2022-11-18T15:04:31.416Z,100.00
2022-11-18T15:09:33.159Z,100.00
2022-11-18T15:14:37.599Z,100.00
2022-11-18T15:19:40.689Z,100.00
2022-11-18T15:24:42.410Z,100.00
2022-11-18T15:29:44.222Z,100.00
2022-11-18T15:34:46.067Z,100.00
2022-11-18T15:39:50.472Z,100.00
2022-11-18T15:44:52.149Z,100.00
2022-11-18T15:49:56.590Z,100.00
2022-11-18T15:54:58.316Z,100.00
2022-11-18T16:00:00.012Z,100.00
2022-11-18T16:05:01.798Z,100.00
2022-11-18T16:10:39.062Z,100.00
2022-11-18T16:15:43.356Z,100.00
2022-11-18T16:20:45.241Z,100.00
2022-11-18T16:25:46.966Z,100.00
2022-11-18T16:31:07.714Z,100.00
2022-11-18T16:36:09.445Z,100.00
2022-11-18T16:41:29.558Z,100.00
2022-11-18T16:46:32.818Z,100.00
2022-11-18T16:51:35.520Z,100.00
2022-11-18T16:56:40.357Z,100.00
2022-11-18T17:01:42.630Z,100.00
2022-11-18T17:06:46.309Z,100.00
2022-11-18T17:11:48.841Z,100.00
2022-11-18T17:16:52.072Z,100.00
2022-11-18T17:21:54.344Z,100.00
2022-11-18T17:26:56.461Z,100.00
2022-11-18T17:31:58.337Z,100.00
2022-11-18T17:37:06.273Z,100.00
2022-11-18T17:42:14.574Z,100.00
2022-11-18T17:47:16.285Z,100.00
2022-11-18T17:52:19.304Z,100.00
2022-11-18T17:57:21.086Z,99.43
2022-11-18T18:02:22.778Z,99.29
2022-11-18T18:07:24.560Z,98.70
2022-11-18T18:12:44.531Z,98.77
2022-11-18T18:17:49.292Z,98.97
2022-11-18T18:22:50.962Z,99.18
2022-11-18T18:27:52.793Z,99.64
2022-11-18T18:32:54.608Z,99.80
2022-11-18T18:37:56.592Z,99.80
2022-11-18T18:42:58.310Z,99.45
2022-11-18T18:48:03.886Z,99.02
2022-11-18T18:53:05.519Z,98.38
2022-11-18T18:58:07.196Z,98.45
2022-11-18T19:03:08.914Z,98.24
2022-11-18T19:08:10.588Z,97.98
2022-11-18T19:13:12.250Z,98.01
2022-11-18T19:18:13.952Z,97.83
2022-11-18T19:23:17.981Z,98.12
2022-11-18T19:28:19.922Z,97.71
2022-11-18T19:33:21.761Z,97.77
2022-11-18T19:38:23.415Z,97.68
2022-11-18T19:43:27.157Z,97.64
2022-11-18T19:48:29.429Z,97.08
2022-11-18T19:53:34.923Z,97.21
2022-11-18T19:58:38.272Z,96.89
2022-11-18T20:03:41.529Z,96.74
2022-11-18T20:08:45.014Z,96.72
2022-11-18T20:13:47.412Z,96.81
2022-11-18T20:19:00.279Z,96.57
2022-11-18T20:24:03.178Z,96.74
2022-11-18T20:29:06.361Z,96.83
2022-11-18T20:34:11.807Z,96.81
2022-11-18T20:39:15.378Z,96.60
2022-11-18T20:44:17.029Z,96.71
2022-11-18T20:49:18.770Z,96.80
2022-11-18T20:54:20.591Z,97.05
2022-11-18T20:59:22.243Z,96.74
2022-11-18T21:04:23.923Z,96.30
2022-11-18T21:09:26.367Z,96.51
2022-11-18T21:14:28.043Z,96.71
2022-11-18T21:19:32.214Z,96.87
2022-11-18T21:24:34.749Z,96.83
2022-11-18T21:29:36.452Z,96.60
2022-11-18T21:34:38.145Z,96.42
2022-11-18T21:39:39.915Z,97.01
2022-11-18T21:44:41.588Z,96.99
2022-11-18T21:49:43.421Z,97.82
2022-11-18T21:54:45.063Z,98.68
2022-11-18T21:59:46.771Z,99.02
2022-11-18T22:04:54.828Z,98.85
2022-11-18T22:09:56.468Z,98.39
2022-11-18T22:14:58.074Z,98.42
2022-11-18T22:19:59.753Z,98.39
2022-11-18T22:25:01.392Z,98.02
2022-11-18T22:30:03.193Z,97.89
2022-11-18T22:35:05.254Z,97.54
2022-11-18T22:40:07.628Z,97.40
2022-11-18T22:45:09.480Z,97.25
2022-11-18T22:50:11.105Z,97.15
2022-11-18T22:55:13.059Z,97.08
2022-11-18T23:00:15.843Z,97.10
2022-11-18T23:05:17.571Z,97.31
2022-11-18T23:10:19.251Z,97.33
2022-11-18T23:15:21.166Z,97.42
2022-11-18T23:20:22.831Z,97.47
2022-11-18T23:25:24.490Z,97.54
2022-11-18T23:30:26.228Z,97.58
2022-11-18T23:35:27.936Z,98.33
2022-11-18T23:40:30.974Z,98.25
2022-11-18T23:45:32.808Z,98.21
2022-11-18T23:50:39.148Z,98.19
2022-11-18T23:55:41.068Z,98.40
